ADDS METAR Data INFO
IDs: Format: Raw Decoded Include TAF

Data at: 0049 UTC 22 Oct 2017

KM33 220035Z AUTO 13004KT 10SM CLR 20/13 A3020 RMK A01
KM33 220015Z AUTO 12004KT 10SM SCT041 19/13 A3020 RMK A01
KM33 212355Z AUTO 00000KT 10SM SCT041 19/13 A3020 RMK A01
KM33 212335Z AUTO 14004KT 10SM CLR 20/13 A3020 RMK A01
KM33 212315Z AUTO 13005KT 10SM CLR 22/13 A3019 RMK A01
KM33 212255Z AUTO 00000KT 10SM CLR 22/14 A3020 RMK A01
KM33 212235Z AUTO 00000KT 10SM CLR 23/13 A3020 RMK A01
KM33 212215Z AUTO 14003KT 10SM CLR 24/13 A3020 RMK A01
KM33 212155Z AUTO 13003KT 10SM CLR 25/13 A3020 RMK A01
KM33 212135Z AUTO 15004KT 10SM CLR 25/13 A3019 RMK A01
KM33 212115Z AUTO 14006KT 10SM CLR 25/13 A3019 RMK A01
KM33 212055Z AUTO 14005KT 10SM CLR 25/13 A3020 RMK A01
KM33 212035Z AUTO 15005KT 10SM CLR 25/13 A3020 RMK A01
KM33 212015Z AUTO 16006KT 10SM CLR 26/13 A3020 RMK A01
KM33 211955Z AUTO 14007KT 10SM CLR 26/13 A3020 RMK A01
KM33 211935Z AUTO VRB04KT 10SM CLR 26/12 A3021 RMK A01
KM33 211915Z AUTO 16004KT 10SM CLR 25/13 A3021 RMK A01
KM33 211855Z AUTO 19003KT 10SM CLR 25/12 A3021 RMK A01
KM33 211835Z AUTO 17007KT 140V210 10SM CLR 25/12 A3022 RMK A01
KM33 211815Z AUTO 17006KT 10SM CLR 25/12 A3022 RMK A01
KM33 211755Z AUTO 00000KT 10SM CLR 24/12 A3023 RMK A01
KM33 211735Z AUTO 15007KT 10SM CLR 24/11 A3024 RMK A01
KM33 211715Z AUTO VRB04KT 10SM CLR 24/11 A3025 RMK A01
KM33 211655Z AUTO VRB05KT 10SM CLR 24/11 A3026 RMK A01
KM33 211635Z AUTO VRB05KT 6SM HZ CLR 23/12 A3026 RMK A01
KM33 211615Z AUTO 14003KT 8SM CLR 21/12 A3027 RMK A01
KM33 211555Z AUTO 00000KT 6SM HZ CLR 20/12 A3028 RMK A01
KM33 211535Z AUTO 00000KT 6SM HZ CLR 18/12 A3028 RMK A01
KM33 211515Z AUTO 00000KT 5SM HZ CLR 18/11 A3029 RMK A01
KM33 211455Z AUTO 00000KT 6SM HZ CLR 17/11 A3028 RMK A01
KM33 211435Z AUTO 00000KT 6SM HZ CLR 16/12 A3028 RMK A01
KM33 211415Z AUTO 00000KT 7SM CLR 14/11 A3028 RMK A01
KM33 211355Z AUTO 00000KT 6SM HZ CLR 13/11 A3028 RMK A01
KM33 211335Z AUTO 00000KT 5SM BR CLR 12/10 A3028 RMK A01
KM33 211315Z AUTO 00000KT 4SM BR CLR 11/10 A3027 RMK A01
KM33 211255Z AUTO 00000KT 4SM BR CLR 10/09 A3027 RMK A01
KM33 211235Z AUTO 00000KT 4SM BR CLR 09/08 A3026 RMK A01
KM33 211215Z AUTO 00000KT 4SM BR FEW029 09/08 A3025 RMK A01
KM33 211155Z AUTO 00000KT 6SM BR BKN028 09/08 A3025 RMK A01
KM33 211135Z AUTO 00000KT 6SM BR SCT026 08/07 A3024 RMK A01
KM33 211115Z AUTO 00000KT 6SM BR CLR 08/07 A3023 RMK A01
KM33 211055Z AUTO 00000KT 6SM BR CLR 08/07 A3023 RMK A01
KM33 211035Z AUTO 00000KT 6SM BR CLR 08/07 A3023 RMK A01
KM33 211015Z AUTO 00000KT 6SM BR CLR 08/07 A3022 RMK A01
KM33 210955Z AUTO 00000KT 6SM BR CLR 08/07 A3022 RMK A01
KM33 210935Z AUTO 00000KT 4SM BR CLR 08/07 A3021 RMK A01
KM33 210915Z AUTO 00000KT 2 1/2SM BR FEW028 09/08 A3022 RMK A01
KM33 210855Z AUTO 00000KT 6SM BR FEW027 09/08 A3021 RMK A01
KM33 210835Z AUTO 00000KT 6SM BR FEW027 08/07 A3021 RMK A01
KM33 210815Z AUTO 00000KT 6SM BR FEW026 09/08 A3021 RMK A01
KM33 210755Z AUTO 00000KT 6SM BR FEW027 09/08 A3021 RMK A01
KM33 210735Z AUTO 00000KT 7SM FEW027 09/08 A3021 RMK A01
KM33 210715Z AUTO 00000KT 5SM BR CLR 09/08 A3021 RMK A01
KM33 210655Z AUTO 00000KT 6SM BR CLR 09/08 A3020 RMK A01
KM33 210635Z AUTO 00000KT 6SM BR CLR 09/08 A3020 RMK A01
KM33 210615Z AUTO 00000KT 6SM BR CLR 09/07 A3020 RMK A01
KM33 210555Z AUTO 00000KT 6SM BR CLR 10/08 A3020 RMK A01
KM33 210535Z AUTO 00000KT 6SM BR CLR 10/08 A3020 RMK A01
KM33 210515Z AUTO 00000KT 5SM BR CLR 10/09 A3020 RMK A01
KM33 210455Z AUTO 00000KT 6SM BR CLR 10/09 A3020 RMK A01
KM33 210435Z AUTO 00000KT 6SM BR CLR 12/10 A3020 RMK A01
KM33 210415Z AUTO 00000KT 5SM BR CLR 11/10 A3020 RMK A01
KM33 210355Z AUTO 00000KT 5SM BR CLR 12/10 A3020 RMK A01
KM33 210335Z AUTO 00000KT 5SM HZ CLR 12/09 A3020 RMK A01
KM33 210315Z AUTO 00000KT 5SM BR CLR 12/10 A3020 RMK A01
KM33 210255Z AUTO 00000KT 4SM HZ CLR 12/09 A3021 RMK A01
KM33 210235Z AUTO 00000KT 4SM HZ CLR 13/10 A3021 RMK A01
KM33 210215Z AUTO 00000KT 4SM HZ CLR 13/10 A3020 RMK A01
KM33 210155Z AUTO 00000KT 3SM HZ CLR 13/09 A3020 RMK A01
KM33 210135Z AUTO 00000KT 3SM HZ FEW036 13/09 A3020 RMK A01
KM33 210115Z AUTO 00000KT 3SM HZ BKN036 14/09 A3020 RMK A01
KM33 210055Z AUTO 00000KT 3SM HZ BKN036 14/10 A3020 RMK A01
KM33 210035Z AUTO 00000KT 3SM HZ CLR 15/09 A3020 RMK A01
KM33 210010Z AUTO 00000KT 3SM HZ CLR 15/10 A3020 RMK A01
KM33 202355Z AUTO 00000KT 3SM HZ CLR 16/10 A3020 RMK A01
KM33 202335Z AUTO 00000KT 3SM HZ CLR 17/10 A3020 RMK A01
KM33 202315Z AUTO 00000KT 2SM HZ CLR 19/09 A3020 RMK A01
KM33 202255Z AUTO 00000KT 2SM HZ CLR 19/09 A3019 RMK A01
KM33 202235Z AUTO 00000KT 3SM HZ CLR 22/08 A3019 RMK A01
KM33 202215Z AUTO 00000KT 2 1/2SM HZ CLR 23/08 A3019 RMK A01
KM33 202155Z AUTO 00000KT 2 1/2SM HZ CLR 25/06 A3019 RMK A01
KM33 202135Z AUTO 00000KT 3SM HZ CLR 25/06 A3019 RMK A01
KM33 202115Z AUTO 00000KT 5SM HZ CLR 25/07 A3020 RMK A01
KM33 202055Z AUTO 00000KT 5SM HZ CLR 25/08 A3020 RMK A01
KM33 202035Z AUTO 12006KT 9SM CLR 25/08 A3021 RMK A01
KM33 202015Z AUTO 16004KT 9SM CLR 25/08 A3021 RMK A01
KM33 201955Z AUTO VRB05G10KT 10SM CLR 25/07 A3021 RMK A01
KM33 201935Z AUTO VRB04KT 9SM CLR 25/08 A3022 RMK A01
KM33 201915Z AUTO VRB05KT 6SM HZ CLR 25/08 A3023 RMK A01
KM33 201855Z AUTO 12005KT 10SM CLR 24/09 A3023 RMK A01
KM33 201835Z AUTO VRB04KT 10SM CLR 24/09 A3025 RMK A01
KM33 201815Z AUTO VRB04KT 10SM CLR 24/08 A3026 RMK A01
KM33 201755Z AUTO 15004KT 10SM CLR 23/07 A3028 RMK A01
KM33 201735Z AUTO 15004KT 10SM CLR 23/08 A3029 RMK A01
KM33 201715Z AUTO 00000KT 10SM CLR 22/09 A3030 RMK A01
KM33 201655Z AUTO 00000KT 10SM CLR 22/09 A3031 RMK A01
KM33 201635Z AUTO 00000KT 10SM CLR 21/10 A3032 RMK A01
KM33 201615Z AUTO 00000KT 10SM CLR 20/10 A3032 RMK A01
KM33 201555Z AUTO 00000KT 10SM CLR 19/10 A3033 RMK A01
KM33 201535Z AUTO 00000KT 10SM CLR 18/11 A3033 RMK A01
KM33 201515Z AUTO 00000KT 10SM CLR 17/10 A3033 RMK A01
KM33 201455Z AUTO 00000KT 10SM CLR 15/10 A3034 RMK A01
KM33 201435Z AUTO 00000KT 10SM CLR 14/10 A3035 RMK A01
KM33 201415Z AUTO 00000KT 10SM CLR 13/10 A3035 RMK A01
KM33 201355Z AUTO 00000KT 10SM CLR 12/10 A3035 RMK A01
KM33 201335Z AUTO 00000KT 10SM CLR 11/09 A3035 RMK A01
KM33 201315Z AUTO 00000KT 10/09 A3035 RMK A01
KM33 201255Z AUTO 00000KT 10SM CLR 08/07 A3034 RMK A01